Detall de PIREP

Printer-friendly versionPDF version

[2014/12/13 16:00:00]
Flight IATA:CT2304
Pilot Number:012
Company ICAO:CAT
Aircraft Type:F70/A
PAX:79
Aircraft Registration:PFJ
Departing Airport: LIEA
Destination Airport: LIBC
Alternate Airport:LIBD
Online: VATSIM
Route:KOLUS UM603 PNZ UM729 CDC
Flight Level:F290
No Slew and time accel
No pause
Crash detect
Detect pilot in Cockpit between each 30 and 45 minutes
16:00 Zero fuel Weight: 71690 Lbs, Fuel Weight: 11067 Lbs
16:00 VATSIM:LIEA 131520Z 19007KT CAVOK 16/11 Q1020
16:00 VATSIM:LIBC 131350Z 19008KT CAVOK 15/07 Q1023
16:01 Parking Brakes off
16:05 Take-off
16:05 Take off Weight: 82462 Lbs
16:05 Wind: 198º @ 006 Knots Heading: 204º
16:05 POS N40º 37´ 41´´ E008º 17´ 18´´
16:05 Flaps:1 at 158 Knots
16:05 Gear Up: 161 Knots
16:05 Flaps:0 at 190 Knots
16:17 TOC
16:17 Fuel Weight: 9152 Lb
16:20 Wind:241º@034 Knots Heading: 086º Ground Speed: 400 Knots Altitude 31204 ft
16:35 Wind:245º@031 Knots Heading: 088º Ground Speed: 478 Knots Altitude 31269 ft
16:50 Wind:252º@029 Knots Heading: 132º Ground Speed: 466 Knots Altitude 31318 ft
16:58 TOD
16:58 Fuel Weight: 5729 Lb
17:05 Wind:233º@014 Knots Heading: 107º Ground Speed: 357 Knots Altitude 15479 ft
17:08 Flaps:1 at 247 Knots
17:12 Flaps:2 at 183 Knots
17:15 Gear Down: 178 Knots
17:16 Flaps:3 at 187 Knots
17:16 Flaps:4 at 155 Knots
17:18 TouchDown:Rate -390 ft/min Speed: 105 Knots
17:18 VATSIM:LIBC 131350Z 19008KT CAVOK 15/07 Q1023
17:18 Land
17:18 Wind:186º@008 Knots
17:18 Heading: 190º
17:18 Flight Duration: 01:13
17:18 Landing Weight: 76500 Lbs
17:18 POS N38º 59´ 51´´ E017º 04´ 48´´
17:19 Parking brakes on
17:19 Block to Block Duration: 01:18
17:19 Final Fuel: 4761 Lbls
17:19 Spent Fuel: 6305 Lbls
17:19 Flight Length: 475 NM
17:19 TOD Land Length: 93 NM

Exportar CSV

Powered by Drupal - Modified by Danger4k